• Join FlightAware (Why Join?)
  • Login
  • US Flag 
07:13PM EDT


 

Airport Tracker/Info


-or-


 

Live Flight TrackerFlight Track Log ✈ GJS3615 ✈ 29-Apr-2013 ✈ KORD - KGSO

Flight Track Log - Related Links

Times and Time Zones

All times are in EDT time to prevent confusion due to time zone crossing. See the GJS3615 flight status page for this flight to view local times or setup timezone preferences in your user account.

Time Position Orientation Groundspeed Altitude Reporting Facility
EDT Latitude Longitude Course Direction KTS MPH feet Rate Location/Type
09:59AM 41.9000 -87.9000 166° South 197 227 3,700  Level Chicago TRACON
10:02AM 41.6880 -87.4553 153° Southeast  Level Estimated
10:02AM 41.7433 -87.8106 157° South 275 316 10,600  Level Chicago Center
10:03AM 41.5845 -87.5111 202° Southwest  Level FlightAware Approximate
10:03AM 41.6700 -87.7558 151° Southeast 298 343 13,100  Level Chicago Center
10:04AM 41.5120 -87.3978 180° South  Level Estimated
10:04AM 41.5853 -87.6936 151° Southeast 341 392 15,100  Level Chicago Center
10:05AM 41.4394 -87.2847 166° South  Level Estimated
10:05AM 41.4942 -87.6247 150° Southeast 369 425 17,300  Level Chicago Center
10:06AM 41.3950 -87.5692 157° South 388 447 19,400 1,920 Climbing Chicago Center
10:07AM 41.2853 -87.5497 172° South 395 455 21,300 1,980 Climbing Chicago Center
10:08AM 41.1506 -87.5219 171° South 408 470 23,600 1,980 Climbing Chicago Center
10:09AM 41.0375 -87.4911 168° South 414 476 25,500 1,560 Climbing Chicago Center
10:10AM 40.9219 -87.4578 168° South 424 488 26,800 1,080 Climbing Chicago Center
10:11AM 40.8014 -87.4297 170° South 438 504 27,800 960 Climbing Chicago Center
10:12AM 40.6822 -87.3744 161° South 457 526 28,800 960 Climbing Chicago Center
10:13AM 40.5650 -87.2967 153° Southeast 473 544 29,800 1,020 Climbing Chicago Center
10:14AM 40.4289 -87.2044 153° Southeast 478 550 31,000 1,020 Climbing Chicago Center
10:15AM 40.3100 -87.1228 152° Southeast 479 551 32,000 960 Climbing Chicago Center
10:16AM 40.1886 -87.0406 153° Southeast 487 560 33,100 960 Climbing Chicago Center
10:17AM 40.0686 -86.9594 153° Southeast 485 558 34,100 960 Climbing Chicago Center
10:18AM 39.9481 -86.8744 152° Southeast 487 560 35,100 960 Climbing Indianapolis Center
10:19AM 39.8344 -86.7786 147° Southeast 486 559 36,100 960 Climbing Indianapolis Center
10:20AM 39.7111 -86.6528 142° Southeast 490 564 37,100 840 Climbing Indianapolis Center
10:22AM 39.6286 -86.5139 128° Southeast 490 564 37,900 720 Climbing Indianapolis Center
10:23AM 39.5469 -86.3764 128° Southeast 489 563 38,700 480 Climbing Indianapolis Center
10:24AM 39.4658 -86.2392 127° Southeast 483 556 39,000 120 Climbing Indianapolis Center
10:25AM 39.3683 -86.0764 128° Southeast 489 563 39,000  Level Indianapolis Center
10:26AM 39.2847 -85.9356 127° Southeast 492 566 39,000  Level Indianapolis Center
10:27AM 39.2011 -85.7986 128° Southeast 486 559 39,000  Level Indianapolis Center
10:28AM 39.1175 -85.6594 128° Southeast 488 562 39,000  Level Indianapolis Center
10:29AM 39.0336 -85.5211 128° Southeast 487 560 39,000  Level Indianapolis Center
10:30AM 38.9508 -85.3847 128° Southeast 483 556 39,000  Level Indianapolis Center
10:31AM 38.8514 -85.2256 129° Southeast 485 558 39,000  Level Indianapolis Center
10:32AM 38.7683 -85.0889 128° Southeast 484 557 39,000  Level Indianapolis Center
10:33AM 38.6833 -84.9511 128° Southeast 488 562 39,000  Level Indianapolis Center
10:34AM 38.6006 -84.8175 128° Southeast 483 556 39,000 -60 Level Indianapolis Center
10:35AM 38.5164 -84.6817 128° Southeast 485 558 38,900 -360 Descending Indianapolis Center
10:36AM 38.4303 -84.5464 129° Southeast 488 562 38,300 -660 Descending Indianapolis Center
10:37AM 38.3308 -84.3875 129° Southeast 489 563 37,600 -780 Descending Indianapolis Center
10:38AM 38.2447 -84.2508 129° Southeast 493 567 36,700 -960 Descending Indianapolis Center
10:39AM 38.1597 -84.1161 129° Southeast 488 562 35,700 -1,020 Descending Indianapolis Center
10:40AM 38.0739 -83.9850 130° Southeast 482 555 34,700 -1,020 Descending Indianapolis Center
10:41AM 37.9883 -83.8522 129° Southeast 484 557 33,600 -840 Descending Indianapolis Center
10:42AM 37.9044 -83.7169 128° Southeast 485 558 33,000 -300 Descending Indianapolis Center
10:43AM 37.8061 -83.5631 129° Southeast 480 552 33,000  Level Indianapolis Center
10:44AM 37.7206 -83.4322 130° Southeast 482 555 33,000  Level Indianapolis Center
10:45AM 37.6342 -83.2997 129° Southeast 487 560 33,000 -60 Level Indianapolis Center
10:46AM 37.5475 -83.1672 129° Southeast 486 559 32,900 -300 Descending Indianapolis Center
10:47AM 37.4600 -83.0331 129° Southeast 491 565 32,400 -780 Descending Indianapolis Center
10:48AM 37.3706 -82.8978 130° Southeast 497 572 31,400 -1,080 Descending Indianapolis Center
10:49AM 37.2678 -82.7417 130° Southeast 493 567 30,200 -1,080 Descending Indianapolis Center
10:50AM 37.1783 -82.6083 130° Southeast 494 568 29,200 -1,020 Descending Indianapolis Center
10:51AM 37.0900 -82.4761 130° Southeast 491 565 28,200 -1,020 Descending Indianapolis Center
10:53AM 37.0019 -82.3439 130° Southeast 490 564 27,200 -840 Descending Indianapolis Center
10:53AM 36.9528 -82.2725 131° Southeast 496 571 27,000 -300 Descending Atlanta Center
10:54AM 36.8714 -82.1367 127° Southeast 490 564 26,800 -840 Descending Atlanta Center
10:55AM 36.8003 -81.9986 123° Southeast 483 556 25,400 -1,380 Descending Atlanta Center
10:56AM 36.7292 -81.8606 123° Southeast 483 556 24,100 -1,320 Descending Atlanta Center
10:57AM 36.6600 -81.7200 121° Southeast 478 550 22,800 -1,320 Descending Atlanta Center
10:58AM 36.5928 -81.5875 122° Southeast 472 543 21,500 -900 Descending Atlanta Center
10:59AM 36.5253 -81.4528 122° Southeast 466 536 21,000 -300 Descending Atlanta Center
11:00AM 36.4556 -81.3181 123° Southeast 461 531 20,900 -1,080 Descending Atlanta Center
11:01AM 36.3900 -81.1864 122° Southeast 461 531 18,900 -2,100 Descending Atlanta Center
11:02AM 36.3267 -81.0622 122° Southeast 436 502 16,700 -2,340 Descending Atlanta Center
11:03AM 36.2653 -80.9408 122° Southeast 427 491 14,300 -1,980 Descending Atlanta Center
11:04AM 36.2083 -80.8350 124° Southeast 419 482 12,800 -1,620 Descending Atlanta Center
11:05AM 36.1467 -80.7167 123° Southeast 413 475 11,100 -900 Descending Atlanta Center
11:06AM 36.1228 -80.5967 104° East 378 435 11,000 -480 Descending Atlanta Center
11:07AM 36.0925 -80.4875 109° East 352 405 10,200 -1,500 Descending Atlanta Center
11:08AM 36.0603 -80.3914 113° Southeast 323 372 8,100 -2,100 Descending Atlanta Center
11:09AM 36.0286 -80.3056 115° Southeast 297 342 6,100 -2,040 Descending Atlanta Center
11:10AM 35.9944 -80.2122 114° Southeast 267 307 4,100 -1,560 Descending Atlanta Center
11:11AM 35.9667 -80.1289 112° Southeast 267 307 3,000 -600 Descending Atlanta Center
11:12AM 35.9958 -80.0556 64° Northeast 233 268 3,000  Level Atlanta Center